KRSW/RSW METAR and TAF weather

Enter ICAO airport designator
Station Type Date Time Source
KRSW METAR 2019/02/23 22:53 UTC NOAA

KRSW 232253Z 23009KT 10SM CLR 27/21 A3006 RMK AO2 SLP177 T02670206


Station Type Date Time Source
KRSW Decoded METAR 2019/02/23 22:53 UTC NOAA

FORT MYERS SW FL INTERNATIONAL AIRPORT , FL, United States (KRSW) 26-32N 081-46W 9M
Feb 23, 2019 - 05:53 PM EST / 2019.02.23 2253 UTC
Wind: from the SW (230 degrees) at 10 MPH (9 KT):0
Visibility: 10 mile(s):0
Sky conditions: clear
Temperature: 80.1 F (26.7 C)
Dew Point: 69.1 F (20.6 C)
Relative Humidity: 69%
Pressure (altimeter): 30.06 in. Hg (1017 hPa)
ob: KRSW 232253Z 23009KT 10SM CLR 27/21 A3006 RMK AO2 SLP177 T02670206
cycle: 23

Station Type Date Time Source
KRSW TAF 2019/02/23 22:36 UTC NOAA

TAF
AMD KRSW 232134Z 2322/2418 18010G18KT P6SM SCT050 SCT080
FM240000 15004KT P6SM SCT025
FM240900 VRB03KT 5SM BR BKN025
FM241400 21010KT P6SM SCT025 BKN100


Example: see airport list